createdAt,value
2022-10-01T00:02:08.029Z,6.80
2022-10-01T00:04:42.178Z,8.60
2022-10-01T00:07:10.667Z,7.50
2022-10-01T00:09:38.909Z,5.40
2022-10-01T00:12:05.921Z,6.60
2022-10-01T00:14:33.239Z,8.20
2022-10-01T00:17:00.365Z,7.60
2022-10-01T00:19:28.287Z,8.70
2022-10-01T00:21:55.312Z,11.70
2022-10-01T00:24:26.359Z,6.30
2022-10-01T00:26:54.673Z,7.60
2022-10-01T00:29:23.332Z,6.50
2022-10-01T00:31:51.355Z,7.80
2022-10-01T00:34:19.447Z,6.70
2022-10-01T00:36:46.702Z,7.70
2022-10-01T00:39:15.988Z,7.40
2022-10-01T00:41:43.052Z,8.40
2022-10-01T00:44:36.826Z,8.90
2022-10-01T00:47:28.157Z,8.20
2022-10-01T00:50:03.822Z,9.10
2022-10-01T00:52:32.865Z,9.70
2022-10-01T00:55:12.566Z,5.80
2022-10-01T00:57:41.076Z,7.30
2022-10-01T01:00:11.117Z,6.90
2022-10-01T01:02:43.497Z,8.80
2022-10-01T01:05:15.255Z,7.90
2022-10-01T01:07:45.659Z,5.90
2022-10-01T01:10:18.961Z,6.20
2022-10-01T01:12:54.421Z,4.90
2022-10-01T01:15:37.219Z,6.50
2022-10-01T01:18:23.082Z,5.70
2022-10-01T01:20:56.730Z,7.50
2022-10-01T01:23:45.849Z,6.50
2022-10-01T01:26:29.025Z,5.10
2022-10-01T01:29:05.004Z,6.60
2022-10-01T01:31:39.290Z,10.70
2022-10-01T01:34:13.980Z,8.90
2022-10-01T01:36:47.347Z,5.20
2022-10-01T01:39:18.253Z,6.10
2022-10-01T01:41:52.675Z,5.70
2022-10-01T01:44:26.932Z,4.60
2022-10-01T01:46:57.094Z,5.40
2022-10-01T01:49:24.493Z,6.30
2022-10-01T01:52:06.091Z,6.60
2022-10-01T01:54:35.970Z,6.50
2022-10-01T01:57:04.666Z,5.70
2022-10-01T01:59:34.171Z,7.10
2022-10-01T02:02:01.880Z,6.10
2022-10-01T02:04:38.024Z,5.60
2022-10-01T02:07:40.578Z,6.00
2022-10-01T02:10:24.707Z,5.30
2022-10-01T02:13:05.118Z,7.50
2022-10-01T02:15:47.161Z,5.40
2022-10-01T02:18:32.441Z,4.10
2022-10-01T02:21:22.923Z,5.20
2022-10-01T02:23:56.477Z,5.10
2022-10-01T02:26:28.035Z,5.30
2022-10-01T02:28:58.488Z,7.70
2022-10-01T02:31:28.962Z,5.40
2022-10-01T02:33:58.485Z,5.10
2022-10-01T02:36:29.935Z,6.80
2022-10-01T02:38:59.167Z,7.00
2022-10-01T02:41:34.785Z,4.30
2022-10-01T02:44:22.022Z,5.60
2022-10-01T02:47:17.186Z,4.50
2022-10-01T02:49:44.994Z,6.00
2022-10-01T02:52:32.544Z,5.90
2022-10-01T02:55:07.853Z,5.40
2022-10-01T02:57:37.239Z,5.00
2022-10-01T03:00:11.550Z,7.50
2022-10-01T03:02:39.435Z,6.40
2022-10-01T03:05:07.685Z,4.30
2022-10-01T03:07:36.407Z,8.80
2022-10-01T03:10:08.320Z,5.40
2022-10-01T03:12:36.209Z,5.70
2022-10-01T03:15:04.388Z,5.00
2022-10-01T03:17:31.437Z,5.40
2022-10-01T03:19:58.712Z,6.40
2022-10-01T03:22:27.191Z,5.90
2022-10-01T03:24:54.407Z,5.70
2022-10-01T03:27:21.977Z,6.40
2022-10-01T03:29:51.762Z,8.10
2022-10-01T03:32:19.974Z,7.50
2022-10-01T03:34:48.337Z,6.20
2022-10-01T03:37:15.591Z,6.80
2022-10-01T03:39:43.042Z,7.90
2022-10-01T03:42:10.095Z,6.50
2022-10-01T03:44:37.451Z,6.50
2022-10-01T03:47:04.493Z,7.70
2022-10-01T03:49:31.449Z,6.20
2022-10-01T03:52:00.028Z,7.40
2022-10-01T03:54:27.173Z,6.70
2022-10-01T03:56:54.842Z,7.10
2022-10-01T03:59:22.292Z,8.80
2022-10-01T04:01:49.543Z,7.40
2022-10-01T04:04:16.806Z,6.40
2022-10-01T04:06:43.855Z,6.50
2022-10-01T04:09:11.502Z,6.30
2022-10-01T04:11:39.698Z,6.20
2022-10-01T04:14:06.834Z,5.60
2022-10-01T04:16:36.729Z,7.10
2022-10-01T04:19:06.152Z,5.20
2022-10-01T04:21:34.842Z,7.00
2022-10-01T04:24:05.481Z,8.60
2022-10-01T04:26:32.724Z,6.70
2022-10-01T04:29:02.029Z,6.20
2022-10-01T04:31:35.583Z,6.80
2022-10-01T04:34:03.897Z,7.70
2022-10-01T04:36:31.454Z,6.70
2022-10-01T04:39:02.061Z,5.70
2022-10-01T04:41:33.474Z,4.60
2022-10-01T04:44:02.945Z,6.20
2022-10-01T04:46:30.749Z,6.00
2022-10-01T04:48:59.284Z,4.60
2022-10-01T04:51:30.116Z,4.70
2022-10-01T04:53:58.817Z,7.40
2022-10-01T04:56:25.863Z,7.90
2022-10-01T04:58:52.910Z,8.20
2022-10-01T05:01:21.020Z,5.30
2022-10-01T05:03:49.620Z,7.70
2022-10-01T05:06:16.713Z,5.50
2022-10-01T05:08:45.612Z,6.20
2022-10-01T05:11:13.266Z,5.70
2022-10-01T05:13:42.482Z,6.40
2022-10-01T05:16:12.667Z,5.20
2022-10-01T05:18:40.965Z,7.80
2022-10-01T05:21:12.692Z,5.50
2022-10-01T05:23:39.988Z,5.90
2022-10-01T05:26:07.845Z,9.10
2022-10-01T05:28:37.521Z,7.00
2022-10-01T05:31:05.051Z,6.40
2022-10-01T05:33:33.892Z,8.60
2022-10-01T05:36:06.269Z,6.60
2022-10-01T05:38:38.146Z,6.60
2022-10-01T05:41:06.284Z,7.70
2022-10-01T05:43:34.680Z,8.50
2022-10-01T05:46:03.723Z,7.30
2022-10-01T05:48:35.409Z,11.90
2022-10-01T05:51:08.441Z,9.00
2022-10-01T05:53:38.030Z,7.10
2022-10-01T05:56:09.383Z,6.70
2022-10-01T05:58:36.840Z,6.10
2022-10-01T06:01:05.894Z,6.00
2022-10-01T06:03:35.377Z,7.70
2022-10-01T06:06:02.617Z,8.20
2022-10-01T06:08:29.577Z,8.90
2022-10-01T06:11:03.441Z,5.80
2022-10-01T06:13:32.335Z,6.00
2022-10-01T06:15:59.276Z,8.00
2022-10-01T06:18:27.657Z,8.40
2022-10-01T06:20:55.010Z,8.40
2022-10-01T06:23:22.044Z,6.90
2022-10-01T06:25:49.005Z,7.20
2022-10-01T06:28:19.066Z,8.00
2022-10-01T06:30:47.094Z,7.10
2022-10-01T06:33:16.603Z,9.40
2022-10-01T06:35:49.897Z,8.00
2022-10-01T06:38:20.427Z,7.10
2022-10-01T06:40:59.253Z,5.70
2022-10-01T06:43:28.979Z,6.30
2022-10-01T06:45:56.559Z,6.20
2022-10-01T06:48:23.768Z,5.60
2022-10-01T06:50:52.551Z,6.20
2022-10-01T06:53:19.702Z,6.30
2022-10-01T06:55:46.705Z,5.40
2022-10-01T06:58:16.577Z,6.80
2022-10-01T07:00:45.303Z,8.40
2022-10-01T07:03:21.419Z,6.80
2022-10-01T07:05:50.617Z,8.20
2022-10-01T07:08:18.372Z,9.80
2022-10-01T07:10:45.832Z,6.20
2022-10-01T07:13:18.568Z,9.60
2022-10-01T07:15:46.544Z,5.80
2022-10-01T07:18:14.333Z,8.20
2022-10-01T07:20:42.117Z,7.20
2022-10-01T07:23:13.331Z,10.40
2022-10-01T07:25:41.425Z,7.40
2022-10-01T07:28:16.833Z,9.70
2022-10-01T07:31:02.267Z,8.30
2022-10-01T07:33:30.321Z,7.00
2022-10-01T07:36:00.952Z,8.60
2022-10-01T07:38:27.871Z,8.40
2022-10-01T07:40:55.155Z,7.20
2022-10-01T07:43:23.020Z,12.10
2022-10-01T07:45:50.408Z,9.00
2022-10-01T07:48:19.749Z,7.30
2022-10-01T07:50:50.320Z,7.50
2022-10-01T07:53:17.968Z,4.60
2022-10-01T07:55:45.543Z,8.70
2022-10-01T07:58:13.092Z,11.00
2022-10-01T08:00:40.248Z,7.40
2022-10-01T08:03:07.385Z,11.40
2022-10-01T08:05:36.184Z,8.70
2022-10-01T08:08:08.872Z,9.30
2022-10-01T08:10:37.890Z,11.40
2022-10-01T08:13:08.994Z,7.60
2022-10-01T08:15:36.540Z,9.40
2022-10-01T08:18:05.141Z,10.80
2022-10-01T08:20:32.588Z,11.30
2022-10-01T08:23:15.496Z,11.70
2022-10-01T08:25:44.719Z,8.20
2022-10-01T08:28:13.124Z,10.40
2022-10-01T08:30:42.287Z,10.70
2022-10-01T08:33:12.567Z,9.50
2022-10-01T08:35:41.043Z,9.20
2022-10-01T08:38:08.360Z,9.70
2022-10-01T08:40:43.587Z,7.30
2022-10-01T08:43:30.910Z,6.90
2022-10-01T08:46:03.434Z,8.10
2022-10-01T08:48:45.487Z,9.50
2022-10-01T08:51:37.688Z,10.30
2022-10-01T08:54:20.224Z,9.70
2022-10-01T08:56:48.103Z,9.20
2022-10-01T08:59:33.368Z,9.00
2022-10-01T09:02:00.529Z,10.10
2022-10-01T09:04:29.933Z,7.50
2022-10-01T09:07:12.774Z,7.60
2022-10-01T09:10:00.786Z,6.30
2022-10-01T09:13:14.007Z,7.60
2022-10-01T09:16:05.299Z,8.30
2022-10-01T09:19:04.525Z,11.20
2022-10-01T09:21:51.144Z,10.70
2022-10-01T09:24:31.802Z,9.30
2022-10-01T09:26:59.157Z,9.80
2022-10-01T09:29:44.943Z,11.80
2022-10-01T09:32:17.831Z,8.60
2022-10-01T09:34:45.288Z,11.90
2022-10-01T09:37:32.610Z,11.10
2022-10-01T09:40:20.758Z,8.60
2022-10-01T09:42:48.308Z,10.60
2022-10-01T09:45:17.296Z,12.90
2022-10-01T09:47:48.856Z,8.40
2022-10-01T09:50:26.141Z,11.80
2022-10-01T09:52:54.112Z,11.60
2022-10-01T09:55:37.090Z,13.80
2022-10-01T09:58:21.280Z,12.00
2022-10-01T10:00:53.175Z,9.80
2022-10-01T10:03:27.474Z,10.00
2022-10-01T10:05:55.227Z,11.00
2022-10-01T10:08:42.939Z,8.70
2022-10-01T10:11:23.018Z,11.10
2022-10-01T10:13:54.020Z,12.30
2022-10-01T10:16:28.851Z,11.90
2022-10-01T10:19:00.845Z,13.80
2022-10-01T10:21:30.971Z,11.30
2022-10-01T10:24:00.519Z,14.10
2022-10-01T10:26:33.125Z,14.80
2022-10-01T10:29:02.890Z,9.90
2022-10-01T10:31:42.059Z,13.60
2022-10-01T10:34:16.828Z,12.80
2022-10-01T10:36:45.918Z,12.20
2022-10-01T10:40:00.898Z,17.30
2022-10-01T10:42:29.035Z,12.90
2022-10-01T10:45:01.055Z,16.90
2022-10-01T10:47:33.204Z,12.90
2022-10-01T10:50:06.198Z,13.90
2022-10-01T10:52:33.921Z,11.90
2022-10-01T10:55:03.554Z,15.80
2022-10-01T10:57:34.291Z,11.80
2022-10-01T11:00:19.963Z,11.30
2022-10-01T11:03:01.972Z,12.10
2022-10-01T11:05:32.196Z,12.00
2022-10-01T11:08:06.184Z,13.70
2022-10-01T11:10:48.401Z,10.30
2022-10-01T11:13:44.738Z,12.50
2022-10-01T11:16:31.274Z,10.00
2022-10-01T11:18:58.933Z,11.90
2022-10-01T11:21:48.599Z,12.30
2022-10-01T11:24:53.414Z,14.20
2022-10-01T11:27:49.474Z,14.20
2022-10-01T11:30:22.837Z,13.70
2022-10-01T11:33:18.871Z,10.30
2022-10-01T11:36:16.940Z,10.50
2022-10-01T11:38:50.086Z,12.50
2022-10-01T11:41:41.702Z,6.40
2022-10-01T11:44:08.794Z,7.90
2022-10-01T11:46:54.353Z,11.00
2022-10-01T11:49:34.164Z,10.10
2022-10-01T11:52:08.865Z,10.10
2022-10-01T11:54:55.985Z,11.50
2022-10-01T11:57:43.506Z,13.50
2022-10-01T12:00:13.220Z,13.70
2022-10-01T12:02:57.107Z,10.50
2022-10-01T12:05:34.597Z,12.30
2022-10-01T12:08:15.218Z,11.50
2022-10-01T12:10:49.701Z,19.50
2022-10-01T12:13:16.649Z,20.90
2022-10-01T12:16:16.230Z,21.70
2022-10-01T12:18:58.395Z,18.10
2022-10-01T12:21:58.314Z,20.70
2022-10-01T12:24:40.619Z,22.00
2022-10-01T12:27:25.451Z,20.40
2022-10-01T12:30:07.278Z,19.10
2022-10-01T12:32:52.756Z,21.60
2022-10-01T12:35:26.271Z,18.60
2022-10-01T12:38:22.186Z,20.40
2022-10-01T12:40:55.480Z,16.70
2022-10-01T12:43:31.231Z,18.40
2022-10-01T12:46:43.469Z,16.70
2022-10-01T12:49:22.774Z,13.40
2022-10-01T12:51:58.689Z,11.20
2022-10-01T12:55:05.070Z,10.70
2022-10-01T12:57:45.185Z,13.00
2022-10-01T13:00:26.428Z,10.30
2022-10-01T13:03:25.119Z,11.70
2022-10-01T13:06:00.266Z,11.00
2022-10-01T13:08:42.662Z,12.70
2022-10-01T13:11:37.506Z,14.20
2022-10-01T13:14:07.363Z,12.70
2022-10-01T13:16:37.820Z,9.80
2022-10-01T13:19:25.863Z,12.00
2022-10-01T13:22:07.961Z,9.90
2022-10-01T13:25:01.445Z,10.40
2022-10-01T13:27:55.169Z,7.40
2022-10-01T13:30:26.759Z,12.20
2022-10-01T13:32:54.976Z,10.80
2022-10-01T13:35:39.536Z,10.80
2022-10-01T13:38:25.885Z,6.20
2022-10-01T13:41:22.159Z,6.70
2022-10-01T13:43:57.344Z,9.60
2022-10-01T13:46:31.665Z,6.70
2022-10-01T13:49:30.351Z,7.80
2022-10-01T13:51:58.482Z,5.70
2022-10-01T13:54:35.564Z,6.50
2022-10-01T13:57:10.849Z,8.20
2022-10-01T13:59:39.044Z,9.20
2022-10-01T14:02:34.189Z,7.30
2022-10-01T14:05:27.908Z,9.20
2022-10-01T14:08:27.080Z,10.60
2022-10-01T14:11:21.385Z,8.80
2022-10-01T14:14:12.974Z,8.20
2022-10-01T14:16:47.022Z,8.10
2022-10-01T14:19:22.491Z,9.00
2022-10-01T14:22:02.092Z,8.00
2022-10-01T14:24:38.899Z,10.00
2022-10-01T14:27:30.958Z,12.40
2022-10-01T14:30:16.893Z,10.10
2022-10-01T14:33:22.149Z,8.10
2022-10-01T14:36:07.438Z,8.20
2022-10-01T14:38:34.783Z,6.60
2022-10-01T14:41:02.445Z,7.70
2022-10-01T14:43:31.567Z,8.20
2022-10-01T14:46:06.788Z,8.60
2022-10-01T14:48:37.519Z,9.80
2022-10-01T14:51:08.651Z,6.70
2022-10-01T14:53:38.995Z,7.50
2022-10-01T14:56:14.289Z,6.40
2022-10-01T14:58:45.375Z,8.20
2022-10-01T15:01:21.331Z,10.20
2022-10-01T15:03:50.677Z,7.60
2022-10-01T15:06:23.720Z,8.70
2022-10-01T15:08:53.115Z,6.50
2022-10-01T15:11:23.381Z,10.10
2022-10-01T15:13:55.105Z,8.40
2022-10-01T15:16:28.421Z,8.70
2022-10-01T15:18:59.689Z,10.70
2022-10-01T15:21:35.632Z,7.90
2022-10-01T15:24:05.028Z,6.70
2022-10-01T15:26:35.186Z,11.90
2022-10-01T15:29:07.922Z,6.80
2022-10-01T15:31:44.772Z,9.40
2022-10-01T15:34:17.057Z,9.20
2022-10-01T15:36:45.646Z,8.70
2022-10-01T15:39:33.252Z,9.80
2022-10-01T15:42:12.577Z,10.20
2022-10-01T15:44:47.434Z,6.80
2022-10-01T15:47:21.646Z,11.70
2022-10-01T15:50:19.106Z,9.70
2022-10-01T15:52:51.879Z,12.20
2022-10-01T15:55:34.096Z,11.50
2022-10-01T15:58:06.237Z,7.90
2022-10-01T16:00:59.013Z,12.10
2022-10-01T16:03:36.500Z,13.10
2022-10-01T16:06:06.617Z,8.50
2022-10-01T16:08:58.245Z,9.60
2022-10-01T16:11:33.965Z,7.20
2022-10-01T16:14:24.505Z,12.50
2022-10-01T16:17:19.119Z,6.50
2022-10-01T16:19:53.768Z,5.60
2022-10-01T16:22:27.741Z,9.90
2022-10-01T16:25:03.976Z,8.40
2022-10-01T16:27:38.392Z,12.00
2022-10-01T16:30:11.172Z,10.40
2022-10-01T16:32:46.639Z,6.60
2022-10-01T16:35:23.446Z,9.00
2022-10-01T16:37:57.094Z,9.30
2022-10-01T16:40:35.208Z,9.70
2022-10-01T16:43:08.562Z,10.40
2022-10-01T16:45:43.127Z,7.60
2022-10-01T16:48:19.058Z,13.40
2022-10-01T16:50:54.603Z,9.00
2022-10-01T16:53:25.231Z,9.60
2022-10-01T16:55:59.592Z,10.40
2022-10-01T16:58:27.876Z,10.30
2022-10-01T17:00:56.204Z,8.20
2022-10-01T17:03:24.841Z,9.30
2022-10-01T17:05:54.247Z,7.40
2022-10-01T17:08:24.477Z,6.90
2022-10-01T17:11:01.013Z,7.70
2022-10-01T17:13:36.564Z,9.70
2022-10-01T17:16:07.233Z,6.90
2022-10-01T17:18:40.663Z,10.40
2022-10-01T17:21:10.130Z,6.60
2022-10-01T17:23:39.195Z,9.10
2022-10-01T17:26:10.094Z,7.90
2022-10-01T17:28:43.784Z,9.00
2022-10-01T17:31:16.988Z,10.00
2022-10-01T17:33:46.350Z,6.30
2022-10-01T17:36:15.521Z,6.90
2022-10-01T17:38:45.585Z,7.70
2022-10-01T17:41:16.695Z,7.50
2022-10-01T17:43:44.270Z,13.50
2022-10-01T17:46:11.547Z,7.60
2022-10-01T17:48:40.706Z,9.00
2022-10-01T17:51:09.511Z,12.90
2022-10-01T17:53:42.292Z,17.00
2022-10-01T17:56:14.858Z,23.30
2022-10-01T17:58:45.717Z,21.90
2022-10-01T18:01:20.243Z,19.60
2022-10-01T18:03:58.640Z,20.60
2022-10-01T18:06:27.750Z,15.60
2022-10-01T18:08:56.520Z,17.10
2022-10-01T18:11:26.804Z,17.40
2022-10-01T18:13:54.191Z,32.50
2022-10-01T18:16:22.525Z,45.90
2022-10-01T18:21:49.478Z,41.70
2022-10-01T18:24:18.433Z,40.00
2022-10-01T18:26:46.142Z,35.40
2022-10-01T18:29:27.779Z,29.90
2022-10-01T18:32:02.265Z,31.30
2022-10-01T18:34:55.410Z,28.70
2022-10-01T18:37:48.212Z,32.00
2022-10-01T18:40:28.699Z,28.70
2022-10-01T18:43:31.869Z,28.50
2022-10-01T18:46:34.931Z,28.60
2022-10-01T18:49:37.756Z,27.10
2022-10-01T18:52:18.539Z,26.90
2022-10-01T18:55:06.228Z,25.60
2022-10-01T18:58:06.413Z,25.10
2022-10-01T19:01:15.858Z,23.10
2022-10-01T19:04:19.328Z,21.00
2022-10-01T19:06:58.035Z,22.00
2022-10-01T19:09:30.931Z,19.60
2022-10-01T19:12:47.346Z,16.00
2022-10-01T19:15:24.527Z,19.00
2022-10-01T19:18:22.903Z,18.20
2022-10-01T19:20:58.745Z,19.10
2022-10-01T19:23:29.497Z,18.00
2022-10-01T19:26:04.215Z,16.00
2022-10-01T19:28:47.070Z,16.90
2022-10-01T19:31:18.647Z,16.50
2022-10-01T19:33:57.305Z,13.60
2022-10-01T19:36:33.746Z,16.30
2022-10-01T19:39:10.867Z,13.70
2022-10-01T19:42:00.726Z,14.80
2022-10-01T19:45:03.124Z,12.40
2022-10-01T19:48:08.765Z,13.80
2022-10-01T19:50:41.809Z,12.50
2022-10-01T19:53:29.787Z,15.60
2022-10-01T19:56:02.292Z,13.80
2022-10-01T19:58:36.882Z,10.80
2022-10-01T20:01:05.370Z,11.80
2022-10-01T20:03:44.536Z,13.70
2022-10-01T20:06:41.964Z,11.30
2022-10-01T20:09:32.494Z,13.80
2022-10-01T20:12:15.680Z,12.20
2022-10-01T20:15:08.610Z,13.50
2022-10-01T20:17:56.260Z,11.40
2022-10-01T20:20:43.801Z,12.30
2022-10-01T20:23:29.717Z,13.90
2022-10-01T20:26:02.798Z,10.30
2022-10-01T20:28:30.011Z,16.70
2022-10-01T20:31:25.315Z,9.30
2022-10-01T20:34:01.244Z,11.70
2022-10-01T20:36:39.472Z,11.90
2022-10-01T20:39:17.828Z,12.20
2022-10-01T20:41:48.330Z,10.70
2022-10-01T20:44:23.284Z,12.70
2022-10-01T20:46:56.579Z,9.40
2022-10-01T20:49:53.434Z,10.40
2022-10-01T20:52:38.622Z,10.00
2022-10-01T20:55:12.501Z,8.70
2022-10-01T20:57:55.171Z,9.90
2022-10-01T21:00:27.520Z,10.00
2022-10-01T21:03:20.257Z,8.30
2022-10-01T21:06:21.702Z,9.10
2022-10-01T21:08:59.760Z,9.30
2022-10-01T21:11:34.964Z,9.00
2022-10-01T21:14:25.586Z,8.60
2022-10-01T21:17:33.465Z,8.70
2022-10-01T21:20:39.615Z,6.00
2022-10-01T21:23:15.871Z,7.60
2022-10-01T21:25:43.841Z,9.10
2022-10-01T21:28:44.138Z,7.30
2022-10-01T21:31:45.144Z,7.20
2022-10-01T21:34:14.309Z,9.20
2022-10-01T21:37:20.784Z,6.20
2022-10-01T21:40:36.779Z,6.80
2022-10-01T21:43:47.350Z,9.30
2022-10-01T21:46:40.421Z,7.20
2022-10-01T21:49:38.382Z,9.00
2022-10-01T21:52:31.221Z,6.80
2022-10-01T21:55:04.731Z,7.40
2022-10-01T21:58:17.650Z,6.40
2022-10-01T22:01:08.750Z,7.70
2022-10-01T22:03:51.280Z,7.50
2022-10-01T22:06:28.297Z,6.20
2022-10-01T22:08:55.405Z,6.90
2022-10-01T22:11:32.145Z,6.60
2022-10-01T22:14:04.749Z,8.60
2022-10-01T22:17:06.421Z,6.10
2022-10-01T22:19:39.412Z,7.10
2022-10-01T22:22:39.353Z,8.30
2022-10-01T22:25:12.519Z,6.20
2022-10-01T22:27:54.363Z,7.30
2022-10-01T22:30:33.038Z,7.10
2022-10-01T22:33:14.792Z,7.80
2022-10-01T22:36:09.473Z,7.00
2022-10-01T22:39:01.655Z,4.90
2022-10-01T22:41:40.897Z,7.30
2022-10-01T22:44:25.299Z,7.40
2022-10-01T22:47:04.465Z,6.10
2022-10-01T22:49:32.286Z,5.30
2022-10-01T22:52:08.398Z,6.30
2022-10-01T22:54:56.298Z,6.70
2022-10-01T22:57:43.460Z,5.10
2022-10-01T23:00:17.703Z,6.70
2022-10-01T23:03:11.764Z,5.80
2022-10-01T23:05:41.460Z,4.90
2022-10-01T23:08:31.647Z,5.00
2022-10-01T23:10:58.709Z,5.10
2022-10-01T23:13:52.382Z,5.50
2022-10-01T23:16:38.755Z,5.20
2022-10-01T23:19:12.065Z,4.80
2022-10-01T23:22:16.869Z,7.00
2022-10-01T23:24:59.001Z,6.40
2022-10-01T23:27:43.969Z,6.50
2022-10-01T23:30:36.025Z,3.80
2022-10-01T23:33:23.633Z,7.00
2022-10-01T23:36:02.859Z,6.20
2022-10-01T23:38:53.362Z,5.90
2022-10-01T23:41:40.586Z,6.00
2022-10-01T23:44:20.660Z,6.30
2022-10-01T23:46:51.368Z,7.50
2022-10-01T23:49:24.761Z,5.90
2022-10-01T23:51:57.747Z,4.20
2022-10-01T23:54:37.386Z,6.10
2022-10-01T23:57:15.039Z,4.80
2022-10-01T23:59:54.101Z,7.80
